sensor_id;sensor_type;location;lat;lon;timestamp;P1;durP1;ratioP1;P2;durP2;ratioP2
5519;SDS011;2782;52.362;10.012;2023-04-05T00:00:24;4.22;;;2.70;;
5519;SDS011;2782;52.362;10.012;2023-04-05T00:01:26;3.05;;;2.05;;
5519;SDS011;2782;52.362;10.012;2023-04-05T00:02:27;5.72;;;2.05;;
5519;SDS011;2782;52.362;10.012;2023-04-05T00:03:30;5.68;;;2.13;;
5519;SDS011;2782;52.362;10.012;2023-04-05T00:04:32;4.00;;;2.10;;
5519;SDS011;2782;52.362;10.012;2023-04-05T00:05:34;3.25;;;2.20;;
5519;SDS011;2782;52.362;10.012;2023-04-05T00:06:36;4.65;;;2.13;;
5519;SDS011;2782;52.362;10.012;2023-04-05T00:07:38;4.13;;;2.30;;
5519;SDS011;2782;52.362;10.012;2023-04-05T00:08:39;4.33;;;1.93;;
5519;SDS011;2782;52.362;10.012;2023-04-05T00:09:43;4.78;;;2.10;;
5519;SDS011;2782;52.362;10.012;2023-04-05T00:10:44;6.23;;;2.20;;
5519;SDS011;2782;52.362;10.012;2023-04-05T00:11:46;3.15;;;1.77;;
5519;SDS011;2782;52.362;10.012;2023-04-05T00:12:47;4.05;;;1.88;;
5519;SDS011;2782;52.362;10.012;2023-04-05T00:13:49;3.30;;;1.67;;
5519;SDS011;2782;52.362;10.012;2023-04-05T00:14:51;6.70;;;2.00;;
5519;SDS011;2782;52.362;10.012;2023-04-05T00:15:52;3.35;;;1.98;;
5519;SDS011;2782;52.362;10.012;2023-04-05T00:16:56;4.82;;;2.20;;
5519;SDS011;2782;52.362;10.012;2023-04-05T00:17:58;4.40;;;2.03;;
5519;SDS011;2782;52.362;10.012;2023-04-05T00:19:02;3.20;;;2.00;;
5519;SDS011;2782;52.362;10.012;2023-04-05T00:20:06;4.95;;;1.88;;
5519;SDS011;2782;52.362;10.012;2023-04-05T00:21:10;3.25;;;2.13;;
5519;SDS011;2782;52.362;10.012;2023-04-05T00:22:13;3.08;;;1.85;;
5519;SDS011;2782;52.362;10.012;2023-04-05T00:23:19;2.67;;;1.55;;
5519;SDS011;2782;52.362;10.012;2023-04-05T00:24:21;3.75;;;2.17;;
5519;SDS011;2782;52.362;10.012;2023-04-05T00:25:23;3.85;;;1.80;;
5519;SDS011;2782;52.362;10.012;2023-04-05T00:26:25;5.82;;;1.92;;
5519;SDS011;2782;52.362;10.012;2023-04-05T00:27:26;3.80;;;1.80;;
5519;SDS011;2782;52.362;10.012;2023-04-05T00:28:27;5.53;;;1.50;;
5519;SDS011;2782;52.362;10.012;2023-04-05T00:29:28;3.17;;;1.80;;
5519;SDS011;2782;52.362;10.012;2023-04-05T00:30:30;4.20;;;1.77;;
5519;SDS011;2782;52.362;10.012;2023-04-05T00:31:32;2.80;;;1.75;;
5519;SDS011;2782;52.362;10.012;2023-04-05T00:32:34;2.65;;;1.40;;
5519;SDS011;2782;52.362;10.012;2023-04-05T00:33:35;4.80;;;2.20;;
5519;SDS011;2782;52.362;10.012;2023-04-05T00:34:36;6.70;;;1.55;;
5519;SDS011;2782;52.362;10.012;2023-04-05T00:35:39;4.70;;;2.30;;
5519;SDS011;2782;52.362;10.012;2023-04-05T00:36:40;3.88;;;2.15;;
5519;SDS011;2782;52.362;10.012;2023-04-05T00:37:42;5.88;;;2.33;;
5519;SDS011;2782;52.362;10.012;2023-04-05T00:38:43;3.10;;;1.90;;
5519;SDS011;2782;52.362;10.012;2023-04-05T00:39:46;3.40;;;1.70;;
5519;SDS011;2782;52.362;10.012;2023-04-05T00:40:47;3.53;;;1.90;;
5519;SDS011;2782;52.362;10.012;2023-04-05T00:41:49;1.73;;;1.13;;
5519;SDS011;2782;52.362;10.012;2023-04-05T00:42:49;2.93;;;1.80;;
5519;SDS011;2782;52.362;10.012;2023-04-05T00:43:51;2.33;;;1.67;;
5519;SDS011;2782;52.362;10.012;2023-04-05T00:44:51;3.00;;;1.80;;
5519;SDS011;2782;52.362;10.012;2023-04-05T00:45:53;3.13;;;1.58;;
5519;SDS011;2782;52.362;10.012;2023-04-05T00:46:55;5.22;;;2.50;;
5519;SDS011;2782;52.362;10.012;2023-04-05T00:47:57;3.08;;;1.70;;
5519;SDS011;2782;52.362;10.012;2023-04-05T00:48:57;2.83;;;1.63;;
5519;SDS011;2782;52.362;10.012;2023-04-05T00:49:59;4.07;;;1.40;;
5519;SDS011;2782;52.362;10.012;2023-04-05T00:51:02;3.97;;;1.88;;
5519;SDS011;2782;52.362;10.012;2023-04-05T00:52:08;3.25;;;1.60;;
5519;SDS011;2782;52.362;10.012;2023-04-05T00:53:09;2.17;;;1.47;;
5519;SDS011;2782;52.362;10.012;2023-04-05T00:54:10;2.60;;;1.50;;
5519;SDS011;2782;52.362;10.012;2023-04-05T00:55:12;3.33;;;1.40;;
5519;SDS011;2782;52.362;10.012;2023-04-05T00:56:14;3.08;;;2.20;;
5519;SDS011;2782;52.362;10.012;2023-04-05T00:57:15;4.50;;;1.95;;
5519;SDS011;2782;52.362;10.012;2023-04-05T00:58:18;2.70;;;1.67;;
5519;SDS011;2782;52.362;10.012;2023-04-05T00:59:21;2.90;;;1.30;;
5519;SDS011;2782;52.362;10.012;2023-04-05T01:00:23;3.75;;;1.48;;
5519;SDS011;2782;52.362;10.012;2023-04-05T01:01:25;5.43;;;1.48;;
5519;SDS011;2782;52.362;10.012;2023-04-05T01:02:31;2.88;;;1.55;;
5519;SDS011;2782;52.362;10.012;2023-04-05T01:03:33;3.88;;;1.75;;
5519;SDS011;2782;52.362;10.012;2023-04-05T01:04:36;3.50;;;1.42;;
5519;SDS011;2782;52.362;10.012;2023-04-05T01:05:39;2.55;;;1.48;;
5519;SDS011;2782;52.362;10.012;2023-04-05T01:06:50;2.78;;;1.42;;
5519;SDS011;2782;52.362;10.012;2023-04-05T01:08:01;5.18;;;1.77;;
5519;SDS011;2782;52.362;10.012;2023-04-05T01:09:13;4.90;;;1.92;;
5519;SDS011;2782;52.362;10.012;2023-04-05T01:10:24;1.65;;;1.20;;
5519;SDS011;2782;52.362;10.012;2023-04-05T01:11:30;4.32;;;1.45;;
5519;SDS011;2782;52.362;10.012;2023-04-05T01:12:34;4.70;;;1.92;;
5519;SDS011;2782;52.362;10.012;2023-04-05T01:13:38;2.67;;;1.70;;
5519;SDS011;2782;52.362;10.012;2023-04-05T01:14:42;2.30;;;1.50;;
5519;SDS011;2782;52.362;10.012;2023-04-05T01:15:45;2.90;;;1.45;;
5519;SDS011;2782;52.362;10.012;2023-04-05T01:16:45;2.30;;;1.63;;
5519;SDS011;2782;52.362;10.012;2023-04-05T01:17:48;2.30;;;1.20;;
5519;SDS011;2782;52.362;10.012;2023-04-05T01:18:49;2.80;;;1.70;;
5519;SDS011;2782;52.362;10.012;2023-04-05T01:19:56;3.22;;;1.55;;
5519;SDS011;2782;52.362;10.012;2023-04-05T01:20:58;4.00;;;1.80;;
5519;SDS011;2782;52.362;10.012;2023-04-05T01:22:30;3.13;;;1.50;;
5519;SDS011;2782;52.362;10.012;2023-04-05T01:24:03;3.38;;;1.30;;
5519;SDS011;2782;52.362;10.012;2023-04-05T01:27:01;2.15;;;1.40;;
5519;SDS011;2782;52.362;10.012;2023-04-05T01:28:29;1.55;;;1.15;;
5519;SDS011;2782;52.362;10.012;2023-04-05T01:29:46;3.28;;;1.40;;
5519;SDS011;2782;52.362;10.012;2023-04-05T01:30:51;1.90;;;1.13;;
5519;SDS011;2782;52.362;10.012;2023-04-05T01:32:02;3.40;;;1.90;;
5519;SDS011;2782;52.362;10.012;2023-04-05T01:33:09;2.08;;;1.42;;
5519;SDS011;2782;52.362;10.012;2023-04-05T01:34:16;2.13;;;1.30;;
5519;SDS011;2782;52.362;10.012;2023-04-05T01:35:29;2.95;;;1.60;;
5519;SDS011;2782;52.362;10.012;2023-04-05T01:36:39;1.95;;;1.17;;
5519;SDS011;2782;52.362;10.012;2023-04-05T01:37:44;2.70;;;1.45;;
5519;SDS011;2782;52.362;10.012;2023-04-05T01:38:50;2.10;;;1.30;;
5519;SDS011;2782;52.362;10.012;2023-04-05T01:39:54;1.70;;;1.23;;
5519;SDS011;2782;52.362;10.012;2023-04-05T01:40:56;2.72;;;0.93;;
5519;SDS011;2782;52.362;10.012;2023-04-05T01:41:58;3.53;;;1.50;;
5519;SDS011;2782;52.362;10.012;2023-04-05T01:43:00;2.38;;;1.30;;
5519;SDS011;2782;52.362;10.012;2023-04-05T01:44:02;2.00;;;1.27;;
5519;SDS011;2782;52.362;10.012;2023-04-05T01:45:04;2.00;;;1.07;;
5519;SDS011;2782;52.362;10.012;2023-04-05T01:46:06;3.10;;;1.40;;
5519;SDS011;2782;52.362;10.012;2023-04-05T01:47:07;2.17;;;1.23;;
5519;SDS011;2782;52.362;10.012;2023-04-05T01:48:09;2.00;;;1.17;;
5519;SDS011;2782;52.362;10.012;2023-04-05T01:49:09;2.47;;;1.50;;
5519;SDS011;2782;52.362;10.012;2023-04-05T01:50:11;4.32;;;1.05;;
5519;SDS011;2782;52.362;10.012;2023-04-05T01:51:12;3.03;;;1.33;;
5519;SDS011;2782;52.362;10.012;2023-04-05T01:52:13;2.40;;;1.70;;
5519;SDS011;2782;52.362;10.012;2023-04-05T01:53:14;2.30;;;1.10;;
5519;SDS011;2782;52.362;10.012;2023-04-05T01:54:16;2.15;;;1.25;;
5519;SDS011;2782;52.362;10.012;2023-04-05T01:55:17;3.80;;;1.50;;
5519;SDS011;2782;52.362;10.012;2023-04-05T01:56:18;1.60;;;1.10;;
5519;SDS011;2782;52.362;10.012;2023-04-05T01:57:19;1.98;;;1.23;;
5519;SDS011;2782;52.362;10.012;2023-04-05T01:58:21;3.10;;;1.85;;
5519;SDS011;2782;52.362;10.012;2023-04-05T01:59:22;1.87;;;0.90;;
5519;SDS011;2782;52.362;10.012;2023-04-05T02:00:25;3.20;;;1.15;;
5519;SDS011;2782;52.362;10.012;2023-04-05T02:01:26;2.03;;;1.20;;
5519;SDS011;2782;52.362;10.012;2023-04-05T02:02:28;1.88;;;1.20;;
5519;SDS011;2782;52.362;10.012;2023-04-05T02:03:29;1.33;;;0.80;;
5519;SDS011;2782;52.362;10.012;2023-04-05T02:04:30;1.40;;;0.95;;
5519;SDS011;2782;52.362;10.012;2023-04-05T02:05:31;1.97;;;1.20;;
5519;SDS011;2782;52.362;10.012;2023-04-05T02:06:33;1.20;;;0.70;;
5519;SDS011;2782;52.362;10.012;2023-04-05T02:07:35;2.20;;;1.00;;
5519;SDS011;2782;52.362;10.012;2023-04-05T02:08:36;2.05;;;1.10;;
5519;SDS011;2782;52.362;10.012;2023-04-05T02:09:37;1.00;;;0.90;;
5519;SDS011;2782;52.362;10.012;2023-04-05T02:10:38;2.05;;;1.30;;
5519;SDS011;2782;52.362;10.012;2023-04-05T02:11:39;1.17;;;0.93;;
5519;SDS011;2782;52.362;10.012;2023-04-05T02:12:41;1.85;;;1.02;;
5519;SDS011;2782;52.362;10.012;2023-04-05T02:13:42;3.27;;;1.13;;
5519;SDS011;2782;52.362;10.012;2023-04-05T02:14:43;1.90;;;1.17;;
5519;SDS011;2782;52.362;10.012;2023-04-05T02:15:47;2.30;;;0.80;;
5519;SDS011;2782;52.362;10.012;2023-04-05T02:16:49;2.45;;;1.23;;
5519;SDS011;2782;52.362;10.012;2023-04-05T02:17:50;1.90;;;1.13;;
5519;SDS011;2782;52.362;10.012;2023-04-05T02:18:53;1.55;;;1.15;;
5519;SDS011;2782;52.362;10.012;2023-04-05T02:19:56;1.52;;;1.20;;
5519;SDS011;2782;52.362;10.012;2023-04-05T02:21:01;1.30;;;1.08;;
5519;SDS011;2782;52.362;10.012;2023-04-05T02:22:03;1.58;;;0.90;;
5519;SDS011;2782;52.362;10.012;2023-04-05T02:23:05;1.25;;;0.80;;
5519;SDS011;2782;52.362;10.012;2023-04-05T02:24:07;1.65;;;1.13;;
5519;SDS011;2782;52.362;10.012;2023-04-05T02:25:09;2.00;;;1.00;;
5519;SDS011;2782;52.362;10.012;2023-04-05T02:26:10;1.48;;;1.00;;
5519;SDS011;2782;52.362;10.012;2023-04-05T02:27:11;1.35;;;0.95;;
5519;SDS011;2782;52.362;10.012;2023-04-05T02:28:12;1.73;;;1.10;;
5519;SDS011;2782;52.362;10.012;2023-04-05T02:29:13;1.80;;;1.05;;
5519;SDS011;2782;52.362;10.012;2023-04-05T02:30:14;1.63;;;1.17;;
5519;SDS011;2782;52.362;10.012;2023-04-05T02:31:17;0.95;;;0.85;;
5519;SDS011;2782;52.362;10.012;2023-04-05T02:32:18;1.48;;;0.90;;
5519;SDS011;2782;52.362;10.012;2023-04-05T02:33:19;1.35;;;1.00;;
5519;SDS011;2782;52.362;10.012;2023-04-05T02:34:21;1.92;;;0.82;;
5519;SDS011;2782;52.362;10.012;2023-04-05T02:35:23;0.85;;;0.80;;
5519;SDS011;2782;52.362;10.012;2023-04-05T02:36:24;2.03;;;0.90;;
5519;SDS011;2782;52.362;10.012;2023-04-05T02:37:27;2.30;;;1.30;;
5519;SDS011;2782;52.362;10.012;2023-04-05T02:38:28;1.07;;;0.80;;
5519;SDS011;2782;52.362;10.012;2023-04-05T02:39:29;2.47;;;1.13;;
5519;SDS011;2782;52.362;10.012;2023-04-05T02:40:30;3.00;;;0.77;;
5519;SDS011;2782;52.362;10.012;2023-04-05T02:41:32;1.55;;;0.93;;
5519;SDS011;2782;52.362;10.012;2023-04-05T02:42:33;1.40;;;1.00;;
5519;SDS011;2782;52.362;10.012;2023-04-05T02:43:35;1.90;;;1.05;;
5519;SDS011;2782;52.362;10.012;2023-04-05T02:44:35;0.97;;;0.90;;
5519;SDS011;2782;52.362;10.012;2023-04-05T02:45:37;1.00;;;0.90;;
5519;SDS011;2782;52.362;10.012;2023-04-05T02:46:39;1.10;;;0.93;;
5519;SDS011;2782;52.362;10.012;2023-04-05T02:47:40;3.00;;;1.52;;
5519;SDS011;2782;52.362;10.012;2023-04-05T02:48:41;1.60;;;0.80;;
5519;SDS011;2782;52.362;10.012;2023-04-05T02:49:43;1.08;;;0.70;;
5519;SDS011;2782;52.362;10.012;2023-04-05T02:50:45;1.63;;;0.83;;
5519;SDS011;2782;52.362;10.012;2023-04-05T02:51:47;1.60;;;0.88;;
5519;SDS011;2782;52.362;10.012;2023-04-05T02:52:48;1.83;;;1.20;;
5519;SDS011;2782;52.362;10.012;2023-04-05T02:53:50;1.67;;;1.02;;
5519;SDS011;2782;52.362;10.012;2023-04-05T02:54:51;2.53;;;1.23;;
5519;SDS011;2782;52.362;10.012;2023-04-05T02:55:52;1.10;;;0.80;;
5519;SDS011;2782;52.362;10.012;2023-04-05T02:56:53;1.45;;;1.00;;
5519;SDS011;2782;52.362;10.012;2023-04-05T02:57:57;1.02;;;0.77;;
5519;SDS011;2782;52.362;10.012;2023-04-05T02:58:59;1.33;;;0.73;;
5519;SDS011;2782;52.362;10.012;2023-04-05T03:00:01;2.15;;;0.60;;
5519;SDS011;2782;52.362;10.012;2023-04-05T03:01:04;2.08;;;0.70;;
5519;SDS011;2782;52.362;10.012;2023-04-05T03:02:07;2.75;;;0.95;;
5519;SDS011;2782;52.362;10.012;2023-04-05T03:03:09;1.67;;;0.98;;
5519;SDS011;2782;52.362;10.012;2023-04-05T03:04:10;2.08;;;1.35;;
5519;SDS011;2782;52.362;10.012;2023-04-05T03:05:11;1.20;;;1.10;;
5519;SDS011;2782;52.362;10.012;2023-04-05T03:06:13;1.35;;;0.70;;
5519;SDS011;2782;52.362;10.012;2023-04-05T03:07:13;1.90;;;0.70;;
5519;SDS011;2782;52.362;10.012;2023-04-05T03:08:17;1.00;;;0.90;;
5519;SDS011;2782;52.362;10.012;2023-04-05T03:09:18;1.93;;;0.73;;
5519;SDS011;2782;52.362;10.012;2023-04-05T03:10:20;1.60;;;0.65;;
5519;SDS011;2782;52.362;10.012;2023-04-05T03:11:21;1.55;;;1.20;;
5519;SDS011;2782;52.362;10.012;2023-04-05T03:12:23;1.42;;;0.88;;
5519;SDS011;2782;52.362;10.012;2023-04-05T03:13:23;2.67;;;0.90;;
5519;SDS011;2782;52.362;10.012;2023-04-05T03:14:25;1.65;;;1.10;;
5519;SDS011;2782;52.362;10.012;2023-04-05T03:15:26;1.48;;;0.65;;
5519;SDS011;2782;52.362;10.012;2023-04-05T03:16:28;0.80;;;0.50;;
5519;SDS011;2782;52.362;10.012;2023-04-05T03:17:30;1.42;;;0.98;;
5519;SDS011;2782;52.362;10.012;2023-04-05T03:18:31;1.25;;;0.60;;
5519;SDS011;2782;52.362;10.012;2023-04-05T03:19:33;1.05;;;0.80;;
5519;SDS011;2782;52.362;10.012;2023-04-05T03:20:34;1.25;;;0.93;;
5519;SDS011;2782;52.362;10.012;2023-04-05T03:21:39;0.90;;;0.70;;
5519;SDS011;2782;52.362;10.012;2023-04-05T03:22:40;0.83;;;0.70;;
5519;SDS011;2782;52.362;10.012;2023-04-05T03:23:41;2.13;;;1.10;;
5519;SDS011;2782;52.362;10.012;2023-04-05T03:24:45;0.98;;;0.60;;
5519;SDS011;2782;52.362;10.012;2023-04-05T03:25:47;1.27;;;0.80;;
5519;SDS011;2782;52.362;10.012;2023-04-05T03:26:47;1.23;;;0.63;;
5519;SDS011;2782;52.362;10.012;2023-04-05T03:27:49;2.47;;;0.75;;
5519;SDS011;2782;52.362;10.012;2023-04-05T03:28:51;1.42;;;0.60;;
5519;SDS011;2782;52.362;10.012;2023-04-05T03:29:53;1.70;;;0.85;;
5519;SDS011;2782;52.362;10.012;2023-04-05T03:30:54;1.07;;;0.77;;
5519;SDS011;2782;52.362;10.012;2023-04-05T03:31:56;0.80;;;0.80;;
5519;SDS011;2782;52.362;10.012;2023-04-05T03:32:58;1.65;;;0.75;;
5519;SDS011;2782;52.362;10.012;2023-04-05T03:34:01;0.80;;;0.50;;
5519;SDS011;2782;52.362;10.012;2023-04-05T03:35:02;2.37;;;0.60;;
5519;SDS011;2782;52.362;10.012;2023-04-05T03:36:04;0.80;;;0.57;;
5519;SDS011;2782;52.362;10.012;2023-04-05T03:37:05;1.27;;;0.60;;
5519;SDS011;2782;52.362;10.012;2023-04-05T03:38:06;1.88;;;0.93;;
5519;SDS011;2782;52.362;10.012;2023-04-05T03:39:07;2.13;;;0.70;;
5519;SDS011;2782;52.362;10.012;2023-04-05T03:40:09;0.88;;;0.73;;
5519;SDS011;2782;52.362;10.012;2023-04-05T03:41:12;1.20;;;0.73;;
5519;SDS011;2782;52.362;10.012;2023-04-05T03:42:13;1.35;;;0.60;;
5519;SDS011;2782;52.362;10.012;2023-04-05T03:43:15;1.45;;;0.60;;
5519;SDS011;2782;52.362;10.012;2023-04-05T03:44:16;0.77;;;0.47;;
5519;SDS011;2782;52.362;10.012;2023-04-05T03:45:17;1.33;;;0.80;;
5519;SDS011;2782;52.362;10.012;2023-04-05T03:46:19;1.27;;;0.80;;
5519;SDS011;2782;52.362;10.012;2023-04-05T03:47:20;1.33;;;0.60;;
5519;SDS011;2782;52.362;10.012;2023-04-05T03:48:23;0.80;;;0.55;;
5519;SDS011;2782;52.362;10.012;2023-04-05T03:49:26;1.95;;;0.65;;
5519;SDS011;2782;52.362;10.012;2023-04-05T03:50:26;0.77;;;0.63;;
5519;SDS011;2782;52.362;10.012;2023-04-05T03:51:28;1.58;;;0.90;;
5519;SDS011;2782;52.362;10.012;2023-04-05T03:52:29;1.27;;;0.80;;
5519;SDS011;2782;52.362;10.012;2023-04-05T03:53:31;1.55;;;0.80;;
5519;SDS011;2782;52.362;10.012;2023-04-05T03:54:32;1.20;;;0.57;;
5519;SDS011;2782;52.362;10.012;2023-04-05T03:55:33;0.70;;;0.60;;
5519;SDS011;2782;52.362;10.012;2023-04-05T03:56:35;0.60;;;0.40;;
5519;SDS011;2782;52.362;10.012;2023-04-05T03:57:37;0.60;;;0.40;;
5519;SDS011;2782;52.362;10.012;2023-04-05T03:58:38;0.70;;;0.52;;
5519;SDS011;2782;52.362;10.012;2023-04-05T03:59:40;1.42;;;0.60;;
5519;SDS011;2782;52.362;10.012;2023-04-05T04:00:42;0.90;;;0.70;;
5519;SDS011;2782;52.362;10.012;2023-04-05T04:01:42;1.13;;;0.50;;
5519;SDS011;2782;52.362;10.012;2023-04-05T04:02:45;1.35;;;0.65;;
5519;SDS011;2782;52.362;10.012;2023-04-05T04:03:48;0.82;;;0.63;;
5519;SDS011;2782;52.362;10.012;2023-04-05T04:04:49;1.38;;;0.73;;
5519;SDS011;2782;52.362;10.012;2023-04-05T04:05:50;1.53;;;0.70;;
5519;SDS011;2782;52.362;10.012;2023-04-05T04:06:52;0.85;;;0.50;;
5519;SDS011;2782;52.362;10.012;2023-04-05T04:07:53;1.55;;;0.75;;
5519;SDS011;2782;52.362;10.012;2023-04-05T04:08:54;0.68;;;0.50;;
5519;SDS011;2782;52.362;10.012;2023-04-05T04:09:56;1.23;;;0.60;;
5519;SDS011;2782;52.362;10.012;2023-04-05T04:10:57;2.95;;;0.52;;
5519;SDS011;2782;52.362;10.012;2023-04-05T04:11:59;0.70;;;0.50;;
5519;SDS011;2782;52.362;10.012;2023-04-05T04:13:00;1.50;;;0.70;;
5519;SDS011;2782;52.362;10.012;2023-04-05T04:14:01;0.83;;;0.83;;
5519;SDS011;2782;52.362;10.012;2023-04-05T04:15:03;1.02;;;0.57;;
5519;SDS011;2782;52.362;10.012;2023-04-05T04:16:04;0.80;;;0.52;;
5519;SDS011;2782;52.362;10.012;2023-04-05T04:17:06;0.95;;;0.40;;
5519;SDS011;2782;52.362;10.012;2023-04-05T04:18:06;0.80;;;0.40;;
5519;SDS011;2782;52.362;10.012;2023-04-05T04:19:09;1.02;;;0.63;;
5519;SDS011;2782;52.362;10.012;2023-04-05T04:20:10;2.28;;;0.50;;
5519;SDS011;2782;52.362;10.012;2023-04-05T04:21:13;1.30;;;0.60;;
5519;SDS011;2782;52.362;10.012;2023-04-05T04:22:16;0.80;;;0.50;;
5519;SDS011;2782;52.362;10.012;2023-04-05T04:23:19;0.60;;;0.40;;
5519;SDS011;2782;52.362;10.012;2023-04-05T04:24:20;0.70;;;0.40;;
5519;SDS011;2782;52.362;10.012;2023-04-05T04:25:21;0.75;;;0.43;;
5519;SDS011;2782;52.362;10.012;2023-04-05T04:26:25;1.30;;;0.68;;
5519;SDS011;2782;52.362;10.012;2023-04-05T04:27:28;1.60;;;0.60;;
5519;SDS011;2782;52.362;10.012;2023-04-05T04:28:29;1.17;;;0.65;;
5519;SDS011;2782;52.362;10.012;2023-04-05T04:29:34;1.50;;;0.75;;
5519;SDS011;2782;52.362;10.012;2023-04-05T04:30:37;1.38;;;0.85;;
5519;SDS011;2782;52.362;10.012;2023-04-05T04:31:42;0.55;;;0.40;;
5519;SDS011;2782;52.362;10.012;2023-04-05T04:32:44;0.77;;;0.40;;
5519;SDS011;2782;52.362;10.012;2023-04-05T04:33:53;0.85;;;0.40;;
5519;SDS011;2782;52.362;10.012;2023-04-05T04:34:57;0.70;;;0.40;;
5519;SDS011;2782;52.362;10.012;2023-04-05T04:35:58;0.57;;;0.45;;
5519;SDS011;2782;52.362;10.012;2023-04-05T04:37:01;0.80;;;0.40;;
5519;SDS011;2782;52.362;10.012;2023-04-05T04:38:03;0.85;;;0.30;;
5519;SDS011;2782;52.362;10.012;2023-04-05T04:39:06;0.80;;;0.50;;
5519;SDS011;2782;52.362;10.012;2023-04-05T04:40:07;0.80;;;0.60;;
5519;SDS011;2782;52.362;10.012;2023-04-05T04:41:11;0.70;;;0.40;;
5519;SDS011;2782;52.362;10.012;2023-04-05T04:42:13;0.75;;;0.45;;
5519;SDS011;2782;52.362;10.012;2023-04-05T04:43:18;0.80;;;0.40;;
5519;SDS011;2782;52.362;10.012;2023-04-05T04:44:26;1.20;;;0.35;;
5519;SDS011;2782;52.362;10.012;2023-04-05T04:45:31;0.60;;;0.40;;
5519;SDS011;2782;52.362;10.012;2023-04-05T04:46:33;0.60;;;0.40;;
5519;SDS011;2782;52.362;10.012;2023-04-05T04:47:41;0.70;;;0.60;;
5519;SDS011;2782;52.362;10.012;2023-04-05T04:48:42;0.60;;;0.37;;
5519;SDS011;2782;52.362;10.012;2023-04-05T04:49:46;1.70;;;0.50;;
5519;SDS011;2782;52.362;10.012;2023-04-05T04:50:48;0.60;;;0.40;;
5519;SDS011;2782;52.362;10.012;2023-04-05T04:51:49;0.65;;;0.40;;
5519;SDS011;2782;52.362;10.012;2023-04-05T04:52:50;0.70;;;0.40;;
5519;SDS011;2782;52.362;10.012;2023-04-05T04:53:52;1.63;;;0.40;;
5519;SDS011;2782;52.362;10.012;2023-04-05T04:54:52;1.47;;;0.40;;
5519;SDS011;2782;52.362;10.012;2023-04-05T04:55:54;1.08;;;0.50;;
5519;SDS011;2782;52.362;10.012;2023-04-05T04:56:56;0.80;;;0.50;;
5519;SDS011;2782;52.362;10.012;2023-04-05T04:57:57;0.63;;;0.50;;
5519;SDS011;2782;52.362;10.012;2023-04-05T04:58:59;0.82;;;0.30;;
5519;SDS011;2782;52.362;10.012;2023-04-05T05:00:00;0.60;;;0.30;;
5519;SDS011;2782;52.362;10.012;2023-04-05T05:01:06;0.63;;;0.40;;
5519;SDS011;2782;52.362;10.012;2023-04-05T05:02:08;0.60;;;0.40;;
5519;SDS011;2782;52.362;10.012;2023-04-05T05:03:10;0.90;;;0.50;;
5519;SDS011;2782;52.362;10.012;2023-04-05T05:04:11;0.63;;;0.47;;
5519;SDS011;2782;52.362;10.012;2023-04-05T05:05:12;0.93;;;0.63;;
5519;SDS011;2782;52.362;10.012;2023-04-05T05:06:16;0.80;;;0.52;;
5519;SDS011;2782;52.362;10.012;2023-04-05T05:07:18;0.57;;;0.40;;
5519;SDS011;2782;52.362;10.012;2023-04-05T05:08:21;0.80;;;0.50;;
5519;SDS011;2782;52.362;10.012;2023-04-05T05:09:22;0.90;;;0.50;;
5519;SDS011;2782;52.362;10.012;2023-04-05T05:10:26;0.95;;;0.50;;
5519;SDS011;2782;52.362;10.012;2023-04-05T05:11:26;1.17;;;0.67;;
5519;SDS011;2782;52.362;10.012;2023-04-05T05:12:28;1.40;;;0.40;;
5519;SDS011;2782;52.362;10.012;2023-04-05T05:13:30;0.60;;;0.40;;
5519;SDS011;2782;52.362;10.012;2023-04-05T05:14:32;1.90;;;0.55;;
5519;SDS011;2782;52.362;10.012;2023-04-05T05:15:32;1.20;;;0.50;;
5519;SDS011;2782;52.362;10.012;2023-04-05T05:16:34;1.02;;;0.40;;
5519;SDS011;2782;52.362;10.012;2023-04-05T05:17:35;0.90;;;0.40;;
5519;SDS011;2782;52.362;10.012;2023-04-05T05:18:36;0.60;;;0.57;;
5519;SDS011;2782;52.362;10.012;2023-04-05T05:19:39;0.80;;;0.50;;
5519;SDS011;2782;52.362;10.012;2023-04-05T05:20:41;0.60;;;0.32;;
5519;SDS011;2782;52.362;10.012;2023-04-05T05:21:43;0.60;;;0.33;;
5519;SDS011;2782;52.362;10.012;2023-04-05T05:22:45;0.70;;;0.40;;
5519;SDS011;2782;52.362;10.012;2023-04-05T05:23:46;0.60;;;0.53;;
5519;SDS011;2782;52.362;10.012;2023-04-05T05:24:47;1.30;;;0.30;;
5519;SDS011;2782;52.362;10.012;2023-04-05T05:25:48;1.37;;;0.50;;
5519;SDS011;2782;52.362;10.012;2023-04-05T05:26:50;0.90;;;0.50;;
5519;SDS011;2782;52.362;10.012;2023-04-05T05:27:50;1.30;;;0.63;;
5519;SDS011;2782;52.362;10.012;2023-04-05T05:28:52;1.02;;;0.45;;
5519;SDS011;2782;52.362;10.012;2023-04-05T05:29:53;1.10;;;0.57;;
5519;SDS011;2782;52.362;10.012;2023-04-05T05:30:54;1.42;;;0.35;;
5519;SDS011;2782;52.362;10.012;2023-04-05T05:31:55;0.97;;;0.47;;
5519;SDS011;2782;52.362;10.012;2023-04-05T05:32:56;1.17;;;0.43;;
5519;SDS011;2782;52.362;10.012;2023-04-05T05:33:57;13.97;;;9.17;;
5519;SDS011;2782;52.362;10.012;2023-04-05T05:34:59;6.13;;;3.90;;
5519;SDS011;2782;52.362;10.012;2023-04-05T05:36:00;5.88;;;4.10;;
5519;SDS011;2782;52.362;10.012;2023-04-05T05:37:03;11.70;;;6.35;;
5519;SDS011;2782;52.362;10.012;2023-04-05T05:38:05;7.35;;;5.30;;
5519;SDS011;2782;52.362;10.012;2023-04-05T05:39:06;6.30;;;4.10;;
5519;SDS011;2782;52.362;10.012;2023-04-05T05:40:08;6.20;;;4.20;;
5519;SDS011;2782;52.362;10.012;2023-04-05T05:41:12;5.80;;;3.72;;
5519;SDS011;2782;52.362;10.012;2023-04-05T05:42:13;5.85;;;3.38;;
5519;SDS011;2782;52.362;10.012;2023-04-05T05:43:14;3.00;;;2.70;;
5519;SDS011;2782;52.362;10.012;2023-04-05T05:44:15;5.63;;;3.08;;
5519;SDS011;2782;52.362;10.012;2023-04-05T05:45:17;3.20;;;2.25;;
5519;SDS011;2782;52.362;10.012;2023-04-05T05:46:19;5.13;;;3.20;;
5519;SDS011;2782;52.362;10.012;2023-04-05T05:47:19;5.87;;;2.90;;
5519;SDS011;2782;52.362;10.012;2023-04-05T05:48:21;5.15;;;3.00;;
5519;SDS011;2782;52.362;10.012;2023-04-05T05:49:22;4.00;;;2.33;;
5519;SDS011;2782;52.362;10.012;2023-04-05T05:50:23;4.95;;;3.00;;
5519;SDS011;2782;52.362;10.012;2023-04-05T05:51:24;4.93;;;3.17;;
5519;SDS011;2782;52.362;10.012;2023-04-05T05:52:27;6.53;;;2.70;;
5519;SDS011;2782;52.362;10.012;2023-04-05T05:53:28;4.57;;;2.35;;
5519;SDS011;2782;52.362;10.012;2023-04-05T05:54:29;4.03;;;2.50;;
5519;SDS011;2782;52.362;10.012;2023-04-05T05:55:31;4.55;;;2.78;;
5519;SDS011;2782;52.362;10.012;2023-04-05T05:56:32;3.70;;;2.27;;
5519;SDS011;2782;52.362;10.012;2023-04-05T05:57:33;6.07;;;2.58;;
5519;SDS011;2782;52.362;10.012;2023-04-05T05:58:35;4.57;;;2.30;;
5519;SDS011;2782;52.362;10.012;2023-04-05T05:59:37;3.90;;;2.75;;
5519;SDS011;2782;52.362;10.012;2023-04-05T06:00:38;3.60;;;2.70;;
5519;SDS011;2782;52.362;10.012;2023-04-05T06:01:40;2.67;;;2.10;;
5519;SDS011;2782;52.362;10.012;2023-04-05T06:02:41;3.78;;;2.63;;
5519;SDS011;2782;52.362;10.012;2023-04-05T06:03:43;3.72;;;2.05;;
5519;SDS011;2782;52.362;10.012;2023-04-05T06:04:44;3.90;;;2.87;;
5519;SDS011;2782;52.362;10.012;2023-04-05T06:05:49;3.95;;;2.67;;
5519;SDS011;2782;52.362;10.012;2023-04-05T06:06:50;3.53;;;2.28;;
5519;SDS011;2782;52.362;10.012;2023-04-05T06:07:54;2.47;;;1.98;;
5519;SDS011;2782;52.362;10.012;2023-04-05T06:08:55;3.90;;;2.80;;
5519;SDS011;2782;52.362;10.012;2023-04-05T06:09:57;3.38;;;2.40;;
5519;SDS011;2782;52.362;10.012;2023-04-05T06:10:58;2.90;;;1.88;;
5519;SDS011;2782;52.362;10.012;2023-04-05T06:12:00;3.58;;;2.33;;
5519;SDS011;2782;52.362;10.012;2023-04-05T06:13:01;3.57;;;2.10;;
5519;SDS011;2782;52.362;10.012;2023-04-05T06:14:02;3.47;;;2.08;;
5519;SDS011;2782;52.362;10.012;2023-04-05T06:15:05;3.30;;;1.90;;
5519;SDS011;2782;52.362;10.012;2023-04-05T06:16:07;2.35;;;2.00;;
5519;SDS011;2782;52.362;10.012;2023-04-05T06:17:08;3.00;;;2.27;;
5519;SDS011;2782;52.362;10.012;2023-04-05T06:18:10;3.22;;;2.28;;
5519;SDS011;2782;52.362;10.012;2023-04-05T06:19:10;3.00;;;1.60;;
5519;SDS011;2782;52.362;10.012;2023-04-05T06:20:12;3.80;;;2.67;;
5519;SDS011;2782;52.362;10.012;2023-04-05T06:21:13;4.20;;;2.27;;
5519;SDS011;2782;52.362;10.012;2023-04-05T06:22:15;3.72;;;2.35;;
5519;SDS011;2782;52.362;10.012;2023-04-05T06:23:18;3.10;;;2.25;;